Terminal Aerodrome Forecast
Issued by NWS

Home | Current Version | Previous Version | Text Only | Print | Product List | Glossary On
Versions: 1 2 3 4 5 6 7 8 9 10 11 12 13 14 15 16 17 18 19 20 21 22 23 24 25 26 27 28 29 30
000
FTUS44 KEWX 231632 AAV
TAFSSF
TAF AMD
KSSF 231632Z 2317/2412 15013KT P6SM VCTS SCT020 BKN025CB BKN030
     FM231800 15012KT P6SM VCTS BKN015CB OVC035
     FM232000 15013KT P6SM VCSH BKN030 BKN050
     FM240200 12006KT 3SM TSRA BR OVC015CB
     FM241000 13008KT 4SM -SHRA BR OVC006=

USA.gov is the U.S. government's official web portal to all federal, state and local government web resources and services.